Time;durP1;ratioP1;P1;durP2;ratioP2;P2;SDS_P1;SDS_P2;PMS_P1;PMS_P2;Temp;Humidity;BMP_temperature;BMP_pressure;BME280_temperature;BME280_humidity;BME280_pressure;Samples;Min_cycle;Max_cycle;Signal;HPM_P1;HPM_P2
2023/05/01 00:00:34;;;;;;;2.85;1.60;;;;;;;;;;489926;28;1212;-71
2023/05/01 00:00:56;;;;;;;3.72;1.60;;;;;;;;;;476303;28;1174;-71
2023/05/01 00:01:15;;;;;;;4.60;1.60;;;;;;;;;;485427;28;1910;-71
2023/05/01 00:01:30;;;;;;;2.80;1.50;;;;;;;;;;485530;28;1212;-72
2023/05/01 00:01:46;;;;;;;2.53;1.60;;;;;;;;;;490346;28;1239;-72
2023/05/01 00:02:08;;;;;;;2.83;1.67;;;;;;;;;;486578;28;1070;-71
2023/05/01 00:02:53;;;;;;;3.30;1.80;;;;;;;;;;484650;28;1192;-72
2023/05/01 00:03:13;;;;;;;2.20;1.52;;;;;;;;;;478845;28;1335;-71
2023/05/01 00:03:28;;;;;;;2.63;1.58;;;;;;;;;;483957;28;1222;-72
2023/05/01 00:03:50;;;;;;;2.83;1.60;;;;;;;;;;482306;28;1281;-72
2023/05/01 00:04:38;;;;;;;2.05;1.50;;;;;;;;;;482802;28;1293;-72
2023/05/01 00:05:03;;;;;;;2.80;1.70;;;;;;;;;;479781;28;1714;-73
2023/05/01 00:06:17;;;;;;;2.40;1.60;;;;;;;;;;481993;28;1182;-72
2023/05/01 00:06:58;;;;;;;2.55;1.60;;;;;;;;;;476097;28;1649;-73
2023/05/01 00:07:38;;;;;;;;;;;;;;;;;;;;;
2023/05/01 00:08:44;;;;;;;2.53;1.67;;;;;;;;;;487833;28;1166;-72
2023/05/01 00:09:20;;;;;;;3.28;1.70;;;;;;;;;;478529;28;2150;-72
2023/05/01 00:10:23;;;;;;;2.45;1.70;;;;;;;;;;471479;29;1556;-73
2023/05/01 00:10:47;;;;;;;2.85;1.70;;;;;;;;;;474116;28;2069;-72
2023/05/01 00:12:09;;;;;;;2.78;1.60;;;;;;;;;;480772;28;1236;-73
2023/05/01 00:12:37;;;;;;;4.05;1.70;;;;;;;;;;475670;29;1298;-73
2023/05/01 00:13:16;;;;;;;2.63;1.58;;;;;;;;;;487281;28;1223;-73
2023/05/01 00:13:42;;;;;;;1.77;1.50;;;;;;;;;;483756;28;1134;-72
2023/05/01 00:14:11;;;;;;;;;;;;;;;;;;;;;
2023/05/01 00:14:54;;;;;;;;;;;;;;;;;;;;;
2023/05/01 00:15:11;;;;;;;2.75;1.55;;;;;;;;;;487217;28;1003;-73
2023/05/01 00:16:01;;;;;;;3.80;1.70;;;;;;;;;;480912;28;1234;-73
2023/05/01 00:17:23;;;;;;;;;;;;;;;;;;;;;
2023/05/01 00:18:01;;;;;;;;;;;;;;;;;;;;;
2023/05/01 00:18:29;;;;;;;2.10;1.60;;;;;;;;;;483162;28;1195;-73
2023/05/01 00:20:41;;;;;;;2.55;1.60;;;;;;;;;;468596;29;1236;-73
2023/05/01 00:20:59;;;;;;;2.65;1.50;;;;;;;;;;476103;29;1291;-71
2023/05/01 00:21:27;;;;;;;2.83;1.60;;;;;;;;;;471376;29;1964;-73
2023/05/01 00:21:50;;;;;;;2.75;1.80;;;;;;;;;;477582;29;1242;-73
2023/05/01 00:22:15;;;;;;;2.97;1.60;;;;;;;;;;471997;29;1266;-73
2023/05/01 00:22:31;;;;;;;3.22;1.80;;;;;;;;;;473722;29;1670;-72
2023/05/01 00:22:53;;;;;;;4.13;1.80;;;;;;;;;;476018;29;1338;-72
2023/05/01 00:23:11;;;;;;;3.60;1.80;;;;;;;;;;474568;29;1272;-73
2023/05/01 00:23:27;;;;;;;3.10;1.75;;;;;;;;;;475576;29;1195;-73
2023/05/01 00:23:43;;;;;;;2.65;1.60;;;;;;;;;;475627;28;1472;-73
2023/05/01 00:24:01;;;;;;;3.05;1.50;;;;;;;;;;472676;29;1277;-73
2023/05/01 00:24:19;;;;;;;3.55;1.60;;;;;;;;;;474642;29;1397;-73
2023/05/01 00:24:36;;;;;;;3.22;1.65;;;;;;;;;;475743;29;1166;-71
2023/05/01 00:25:00;;;;;;;2.85;1.70;;;;;;;;;;476793;29;1215;-72
2023/05/01 00:25:19;;;;;;;2.38;1.73;;;;;;;;;;474903;29;1386;-72
2023/05/01 00:25:35;;;;;;;2.47;1.60;;;;;;;;;;472316;29;1279;-72
2023/05/01 00:25:54;;;;;;;2.63;1.60;;;;;;;;;;471578;29;1384;-72
2023/05/01 00:26:09;;;;;;;2.70;1.48;;;;;;;;;;475193;29;992;-72
2023/05/01 00:26:29;;;;;;;2.83;1.53;;;;;;;;;;478565;29;1305;-72
2023/05/01 00:27:05;;;;;;;3.13;1.80;;;;;;;;;;476005;29;1372;-73
2023/05/01 00:27:23;;;;;;;3.60;1.77;;;;;;;;;;477479;29;1246;-73
2023/05/01 00:27:48;;;;;;;4.03;1.77;;;;;;;;;;475395;29;1088;-72
2023/05/01 00:28:05;;;;;;;3.63;1.70;;;;;;;;;;475806;29;1250;-73
2023/05/01 00:28:23;;;;;;;2.95;1.70;;;;;;;;;;476374;29;1222;-73
2023/05/01 00:28:42;;;;;;;4.40;1.70;;;;;;;;;;475049;29;1186;-72
2023/05/01 00:29:26;;;;;;;;;;;;;;;;;;;;;
2023/05/01 00:29:51;;;;;;;2.72;1.50;;;;;;;;;;473203;29;910;-72
2023/05/01 00:30:17;;;;;;;;;;;;;;;;;;;;;
2023/05/01 00:30:34;;;;;;;2.50;1.65;;;;;;;;;;475067;29;1148;-72
2023/05/01 00:30:52;;;;;;;2.53;1.60;;;;;;;;;;477534;29;1204;-73
2023/05/01 00:31:08;;;;;;;2.75;1.70;;;;;;;;;;477457;29;1095;-73
2023/05/01 00:31:27;;;;;;;2.83;1.60;;;;;;;;;;477425;29;1309;-72
2023/05/01 00:31:59;;;;;;;2.53;1.60;;;;;;;;;;476300;29;1076;-72
2023/05/01 00:32:15;;;;;;;2.28;1.60;;;;;;;;;;476063;28;1801;-72
2023/05/01 00:32:31;;;;;;;2.90;1.70;;;;;;;;;;479723;28;1147;-73
2023/05/01 00:32:50;;;;;;;3.72;1.80;;;;;;;;;;478131;29;1158;-73
2023/05/01 00:33:08;;;;;;;3.15;1.70;;;;;;;;;;472573;29;1959;-72
2023/05/01 00:33:24;;;;;;;2.28;1.50;;;;;;;;;;473702;29;1189;-72
2023/05/01 00:33:40;;;;;;;2.10;1.47;;;;;;;;;;476274;29;1279;-72
2023/05/01 00:33:56;;;;;;;2.38;1.50;;;;;;;;;;473628;29;1365;-72
2023/05/01 00:34:21;;;;;;;2.78;1.60;;;;;;;;;;475509;29;2915;-72
2023/05/01 00:34:40;;;;;;;3.53;1.70;;;;;;;;;;474455;29;1111;-72
2023/05/01 00:34:56;;;;;;;2.70;1.63;;;;;;;;;;474195;29;1175;-72
2023/05/01 00:35:12;;;;;;;3.03;1.77;;;;;;;;;;472113;28;1159;-72
2023/05/01 00:35:38;;;;;;;2.90;1.53;;;;;;;;;;473492;29;1080;-72
2023/05/01 00:35:56;;;;;;;2.72;1.65;;;;;;;;;;473098;29;1239;-72
2023/05/01 00:36:12;;;;;;;3.80;1.58;;;;;;;;;;473764;29;1123;-73
2023/05/01 00:36:28;;;;;;;3.73;1.53;;;;;;;;;;475450;29;1017;-73
2023/05/01 00:36:46;;;;;;;2.42;1.50;;;;;;;;;;474644;29;1184;-73
2023/05/01 00:37:02;;;;;;;2.65;1.40;;;;;;;;;;481761;28;1100;-73
2023/05/01 00:37:39;;;;;;;2.95;1.52;;;;;;;;;;481214;28;1242;-73
2023/05/01 00:37:55;;;;;;;2.40;1.60;;;;;;;;;;475873;28;1222;-72
2023/05/01 00:38:22;;;;;;;2.33;1.50;;;;;;;;;;477994;28;1211;-73
2023/05/01 00:38:38;;;;;;;3.38;1.50;;;;;;;;;;477922;29;1321;-72
2023/05/01 00:38:56;;;;;;;4.13;1.57;;;;;;;;;;476562;29;1213;-72
2023/05/01 00:39:12;;;;;;;3.53;1.60;;;;;;;;;;474342;29;1280;-73
2023/05/01 00:39:31;;;;;;;2.90;1.60;;;;;;;;;;475964;29;1317;-73
2023/05/01 00:39:47;;;;;;;2.20;1.50;;;;;;;;;;479812;28;1278;-73
2023/05/01 00:40:04;;;;;;;2.53;1.60;;;;;;;;;;475557;29;1478;-72
2023/05/01 00:40:23;;;;;;;2.90;1.65;;;;;;;;;;476223;28;1200;-72
2023/05/01 00:40:57;;;;;;;2.53;1.63;;;;;;;;;;478800;28;1230;-71
2023/05/01 00:41:13;;;;;;;3.08;1.63;;;;;;;;;;481371;28;1214;-72
2023/05/01 00:41:31;;;;;;;3.08;1.67;;;;;;;;;;476634;28;1458;-73
2023/05/01 00:41:47;;;;;;;2.70;1.58;;;;;;;;;;480134;28;1162;-72
2023/05/01 00:42:06;;;;;;;3.03;1.55;;;;;;;;;;479919;28;1222;-73
2023/05/01 00:42:22;;;;;;;2.63;1.48;;;;;;;;;;478497;28;2460;-72
2023/05/01 00:42:38;;;;;;;3.22;1.60;;;;;;;;;;475900;29;1171;-72
2023/05/01 00:43:18;;;;;;;2.90;1.70;;;;;;;;;;478749;28;1103;-72
2023/05/01 00:43:36;;;;;;;3.22;1.70;;;;;;;;;;476230;28;1319;-73
2023/05/01 00:43:52;;;;;;;3.22;1.63;;;;;;;;;;477315;28;1239;-72
2023/05/01 00:44:11;;;;;;;3.33;1.70;;;;;;;;;;472535;29;1330;-73
2023/05/01 00:44:30;;;;;;;2.97;1.70;;;;;;;;;;475136;29;1840;-72
2023/05/01 00:44:48;;;;;;;2.60;1.58;;;;;;;;;;475541;28;1123;-73
2023/05/01 00:45:14;;;;;;;3.33;1.60;;;;;;;;;;478798;29;1226;-72
2023/05/01 00:45:39;;;;;;;3.08;1.63;;;;;;;;;;473602;29;1375;-72
2023/05/01 00:45:54;;;;;;;2.92;1.65;;;;;;;;;;475132;29;1719;-72
2023/05/01 00:46:13;;;;;;;3.00;1.70;;;;;;;;;;475548;29;1212;-72
2023/05/01 00:46:30;;;;;;;3.45;1.70;;;;;;;;;;472798;29;1216;-72
2023/05/01 00:46:46;;;;;;;2.80;1.75;;;;;;;;;;473243;29;1231;-73
2023/05/01 00:47:03;;;;;;;2.92;1.77;;;;;;;;;;477236;29;1237;-72
2023/05/01 00:47:44;;;;;;;2.55;1.60;;;;;;;;;;476473;29;1320;-72
2023/05/01 00:48:04;;;;;;;2.63;1.60;;;;;;;;;;473950;29;1692;-72
2023/05/01 00:48:45;;;;;;;3.35;1.80;;;;;;;;;;473360;29;1153;-72
2023/05/01 00:49:01;;;;;;;4.38;1.67;;;;;;;;;;475504;29;1203;-73
2023/05/01 00:49:17;;;;;;;3.35;1.60;;;;;;;;;;472760;29;1103;-72
2023/05/01 00:49:36;;;;;;;2.72;1.63;;;;;;;;;;473311;29;1179;-72
2023/05/01 00:49:51;;;;;;;3.05;1.70;;;;;;;;;;477301;29;1395;-72
2023/05/01 00:50:08;;;;;;;2.88;1.70;;;;;;;;;;476731;29;1278;-72
2023/05/01 00:50:27;;;;;;;2.65;1.63;;;;;;;;;;475747;29;1266;-73
2023/05/01 00:50:54;;;;;;;2.80;1.67;;;;;;;;;;475599;29;1108;-72
2023/05/01 00:51:12;;;;;;;2.42;1.70;;;;;;;;;;479498;29;1376;-73
2023/05/01 00:51:39;;;;;;;2.13;1.60;;;;;;;;;;476823;28;1113;-72
2023/05/01 00:51:57;;;;;;;2.92;1.70;;;;;;;;;;479244;28;1166;-72
2023/05/01 00:52:16;;;;;;;3.50;1.75;;;;;;;;;;477235;28;1287;-73
2023/05/01 00:52:52;;;;;;;2.67;1.80;;;;;;;;;;480158;28;1322;-72
2023/05/01 00:53:08;;;;;;;3.20;1.80;;;;;;;;;;474254;29;1975;-73
2023/05/01 00:53:25;;;;;;;3.22;1.60;;;;;;;;;;473068;29;1187;-72
2023/05/01 00:53:42;;;;;;;3.45;1.63;;;;;;;;;;472544;29;1236;-72
2023/05/01 00:54:04;;;;;;;3.05;1.70;;;;;;;;;;473829;29;1248;-73
2023/05/01 00:54:22;;;;;;;2.63;1.80;;;;;;;;;;475667;29;1104;-73
2023/05/01 00:54:38;;;;;;;3.17;1.80;;;;;;;;;;485744;28;1332;-73
2023/05/01 00:55:04;;;;;;;3.95;1.75;;;;;;;;;;478961;28;1370;-72
2023/05/01 00:55:23;;;;;;;3.22;1.70;;;;;;;;;;483880;28;1201;-73
2023/05/01 00:55:51;;;;;;;3.45;1.73;;;;;;;;;;484056;28;1236;-72
2023/05/01 00:56:07;;;;;;;4.15;1.80;;;;;;;;;;482273;28;1142;-73
2023/05/01 00:56:26;;;;;;;4.28;1.80;;;;;;;;;;486022;28;1346;-72
2023/05/01 00:56:42;;;;;;;2.88;1.83;;;;;;;;;;487838;28;1137;-71
2023/05/01 00:56:58;;;;;;;3.33;1.80;;;;;;;;;;488486;28;1070;-73
2023/05/01 00:57:14;;;;;;;3.85;1.73;;;;;;;;;;492264;28;1334;-72
2023/05/01 00:57:31;;;;;;;2.92;1.80;;;;;;;;;;490087;28;1333;-73
2023/05/01 00:58:15;;;;;;;2.30;1.70;;;;;;;;;;487043;28;903;-72
2023/05/01 00:58:34;;;;;;;2.55;1.77;;;;;;;;;;486539;28;1329;-73
2023/05/01 00:58:53;;;;;;;2.22;1.63;;;;;;;;;;483884;28;1970;-73
2023/05/01 00:59:09;;;;;;;2.28;1.65;;;;;;;;;;492763;28;1326;-73
2023/05/01 00:59:47;;;;;;;3.00;2.00;;;;;;;;;;487266;28;1206;-74
2023/05/01 01:00:22;;;;;;;2.33;1.60;;;;;;;;;;486260;28;1161;-73
2023/05/01 01:02:08;;;;;;;2.72;1.70;;;;;;;;;;481814;28;1365;-71
2023/05/01 01:02:34;;;;;;;4.25;1.73;;;;;;;;;;488505;28;1243;-73
2023/05/01 01:03:20;;;;;;;3.47;1.60;;;;;;;;;;486060;28;1574;-72
2023/05/01 01:03:38;;;;;;;2.35;1.80;;;;;;;;;;484444;28;1439;-72
2023/05/01 01:03:55;;;;;;;2.33;1.67;;;;;;;;;;484160;28;1245;-72
2023/05/01 01:04:11;;;;;;;2.75;1.70;;;;;;;;;;484210;28;1335;-72
2023/05/01 01:04:31;;;;;;;3.00;1.80;;;;;;;;;;483364;28;1165;-72
2023/05/01 01:04:55;;;;;;;3.55;1.80;;;;;;;;;;484762;28;1109;-73
2023/05/01 01:05:11;;;;;;;3.13;1.90;;;;;;;;;;482941;28;1112;-72
2023/05/01 01:05:31;;;;;;;3.05;1.90;;;;;;;;;;483555;28;1046;-74
2023/05/01 01:06:36;;;;;;;;;;;;;;;;;;;;;
2023/05/01 01:07:13;;;;;;;3.08;1.63;;;;;;;;;;482735;28;1215;-73
2023/05/01 01:07:55;;;;;;;3.22;1.80;;;;;;;;;;483384;28;1389;-73
2023/05/01 01:08:27;;;;;;;3.35;1.90;;;;;;;;;;484874;28;1163;-73
2023/05/01 01:09:24;;;;;;;4.28;1.70;;;;;;;;;;487014;28;1113;-72
2023/05/01 01:09:58;;;;;;;2.97;1.70;;;;;;;;;;480196;28;1190;-72
2023/05/01 01:10:29;;;;;;;3.55;1.90;;;;;;;;;;480273;28;1316;-72
2023/05/01 01:10:50;;;;;;;2.65;1.80;;;;;;;;;;481653;28;1615;-72
2023/05/01 01:11:53;;;;;;;2.08;1.60;;;;;;;;;;480793;28;1190;-73
2023/05/01 01:12:54;;;;;;;3.22;1.67;;;;;;;;;;481093;28;1255;-73
2023/05/01 01:13:30;;;;;;;2.85;1.60;;;;;;;;;;479756;28;1957;-72
2023/05/01 01:14:27;;;;;;;4.47;1.80;;;;;;;;;;478905;28;1253;-73
2023/05/01 01:14:46;;;;;;;3.25;1.70;;;;;;;;;;479306;28;1282;-73
2023/05/01 01:15:41;;;;;;;3.47;1.80;;;;;;;;;;478520;28;1281;-73
2023/05/01 01:16:14;;;;;;;3.50;1.80;;;;;;;;;;478336;28;1238;-73
2023/05/01 01:16:39;;;;;;;4.00;1.80;;;;;;;;;;480148;28;1194;-72
2023/05/01 01:17:12;;;;;;;3.83;1.77;;;;;;;;;;481488;28;1239;-72
2023/05/01 01:17:57;;;;;;;2.47;1.67;;;;;;;;;;478335;28;1288;-72
2023/05/01 01:18:31;;;;;;;2.50;1.67;;;;;;;;;;479831;28;1321;-72
2023/05/01 01:19:40;;;;;;;3.92;2.10;;;;;;;;;;477212;28;1340;-73
2023/05/01 01:20:56;;;;;;;3.17;1.70;;;;;;;;;;476279;28;1216;-73
2023/05/01 01:21:47;;;;;;;;;;;;;;;;;;;;;
2023/05/01 01:22:15;;;;;;;3.25;1.70;;;;;;;;;;470464;29;1352;-73
2023/05/01 01:23:12;;;;;;;3.70;1.73;;;;;;;;;;474756;28;1277;-74
2023/05/01 01:24:27;;;;;;;2.10;1.65;;;;;;;;;;482280;28;1110;-73
2023/05/01 01:25:15;;;;;;;2.13;1.50;;;;;;;;;;475948;28;1307;-74
2023/05/01 01:26:19;;;;;;;2.55;1.70;;;;;;;;;;473000;28;1232;-72
2023/05/01 01:27:49;;;;;;;2.40;1.70;;;;;;;;;;471148;28;1257;-73
2023/05/01 01:30:01;;;;;;;2.28;1.55;;;;;;;;;;469874;29;1178;-72
2023/05/01 01:30:50;;;;;;;2.30;1.60;;;;;;;;;;461416;29;1110;-72
2023/05/01 01:31:39;;;;;;;2.50;1.60;;;;;;;;;;461453;29;1740;-73
2023/05/01 01:33:01;;;;;;;2.90;2.00;;;;;;;;;;462992;29;1292;-73
2023/05/01 01:34:03;;;;;;;4.28;1.90;;;;;;;;;;474226;29;2054;-74
2023/05/01 01:34:50;;;;;;;2.95;1.80;;;;;;;;;;472667;29;1282;-73
2023/05/01 01:35:17;;;;;;;2.40;1.75;;;;;;;;;;468720;29;1422;-73
2023/05/01 01:35:35;;;;;;;2.80;1.90;;;;;;;;;;467089;29;1237;-73
2023/05/01 01:36:05;;;;;;;2.90;1.88;;;;;;;;;;469188;29;1355;-73
2023/05/01 01:36:50;;;;;;;;;;;;;;;;;;;;;
2023/05/01 01:37:44;;;;;;;2.83;1.90;;;;;;;;;;470636;29;1139;-73
2023/05/01 01:38:19;;;;;;;2.20;1.60;;;;;;;;;;467975;29;1217;-74
2023/05/01 01:39:23;;;;;;;2.88;1.67;;;;;;;;;;467441;29;1424;-73
2023/05/01 01:40:13;;;;;;;2.95;1.80;;;;;;;;;;470289;29;1864;-74
2023/05/01 01:40:35;;;;;;;2.30;1.60;;;;;;;;;;471166;29;1280;-73
2023/05/01 01:41:47;;;;;;;2.67;1.70;;;;;;;;;;470133;29;1130;-73
2023/05/01 01:42:12;;;;;;;2.97;1.80;;;;;;;;;;467653;29;1238;-73
2023/05/01 01:43:12;;;;;;;3.65;1.90;;;;;;;;;;467732;29;1565;-73
2023/05/01 01:44:22;;;;;;;3.10;1.90;;;;;;;;;;469456;29;1106;-74
2023/05/01 01:45:00;;;;;;;1.83;1.50;;;;;;;;;;465913;29;1266;-73
2023/05/01 01:45:28;;;;;;;3.25;1.70;;;;;;;;;;470846;29;1200;-73
2023/05/01 01:45:48;;;;;;;2.70;1.70;;;;;;;;;;469676;29;1212;-73
2023/05/01 01:46:15;;;;;;;1.95;1.60;;;;;;;;;;472568;29;1314;-73
2023/05/01 01:46:40;;;;;;;2.95;1.90;;;;;;;;;;466888;29;1127;-74
2023/05/01 01:47:05;;;;;;;3.45;1.80;;;;;;;;;;470202;29;1280;-73
2023/05/01 01:47:44;;;;;;;3.17;1.80;;;;;;;;;;466039;29;1069;-74
2023/05/01 01:48:02;;;;;;;2.78;1.80;;;;;;;;;;472800;29;1185;-73
2023/05/01 01:48:23;;;;;;;3.30;1.80;;;;;;;;;;469629;29;1269;-74
2023/05/01 01:48:51;;;;;;;3.45;1.80;;;;;;;;;;472890;29;1278;-73
2023/05/01 01:49:23;;;;;;;3.80;1.98;;;;;;;;;;470404;29;1169;-73
2023/05/01 01:50:03;;;;;;;2.30;1.60;;;;;;;;;;468650;29;1331;-72
2023/05/01 01:50:21;;;;;;;2.85;1.77;;;;;;;;;;473144;29;1226;-73
2023/05/01 01:50:47;;;;;;;2.75;1.70;;;;;;;;;;469990;29;1160;-73
2023/05/01 01:51:14;;;;;;;3.42;1.88;;;;;;;;;;471012;29;1183;-73
2023/05/01 01:51:37;;;;;;;4.05;2.00;;;;;;;;;;477952;29;1100;-74
2023/05/01 01:52:32;;;;;;;2.75;1.90;;;;;;;;;;470615;29;1269;-73
2023/05/01 01:52:52;;;;;;;2.72;1.80;;;;;;;;;;468874;29;1334;-73
2023/05/01 01:53:12;;;;;;;2.15;1.70;;;;;;;;;;470199;29;1936;-73
2023/05/01 01:53:32;;;;;;;3.22;1.90;;;;;;;;;;470938;29;1192;-74
2023/05/01 01:53:55;;;;;;;3.20;1.90;;;;;;;;;;472625;29;1303;-73
2023/05/01 01:54:47;;;;;;;2.67;1.70;;;;;;;;;;472699;29;1936;-73
2023/05/01 01:55:21;;;;;;;2.63;1.73;;;;;;;;;;471650;29;1922;-73
2023/05/01 01:55:58;;;;;;;3.42;1.90;;;;;;;;;;472545;29;1162;-73
2023/05/01 01:56:16;;;;;;;2.45;1.80;;;;;;;;;;472254;29;1262;-73
2023/05/01 01:56:33;;;;;;;2.60;1.70;;;;;;;;;;471505;29;1838;-74
2023/05/01 01:56:54;;;;;;;2.70;1.77;;;;;;;;;;470138;29;1520;-73
2023/05/01 01:57:31;;;;;;;;;;;;;;;;;;;;;
2023/05/01 01:57:49;;;;;;;2.75;1.73;;;;;;;;;;470967;29;1951;-73
2023/05/01 01:58:09;;;;;;;2.83;1.88;;;;;;;;;;471552;29;1132;-75
2023/05/01 01:58:26;;;;;;;2.83;1.73;;;;;;;;;;471538;29;1334;-73
2023/05/01 01:58:44;;;;;;;3.10;1.80;;;;;;;;;;469786;29;1496;-73
2023/05/01 01:59:10;;;;;;;2.97;1.80;;;;;;;;;;468891;29;1734;-73
2023/05/01 01:59:44;;;;;;;2.45;1.55;;;;;;;;;;469998;29;1701;-74
2023/05/01 02:00:27;;;;;;;3.30;1.80;;;;;;;;;;471263;29;1307;-75
2023/05/01 02:01:05;;;;;;;2.15;1.80;;;;;;;;;;471873;29;1292;-73
2023/05/01 02:01:23;;;;;;;4.28;2.00;;;;;;;;;;472333;29;1215;-74
2023/05/01 02:01:40;;;;;;;2.72;1.85;;;;;;;;;;469207;29;1134;-73
2023/05/01 02:02:01;;;;;;;2.30;1.70;;;;;;;;;;473836;29;1217;-73
2023/05/01 02:02:49;;;;;;;3.00;1.75;;;;;;;;;;472445;29;1286;-74
2023/05/01 02:03:06;;;;;;;3.25;1.88;;;;;;;;;;470077;29;1330;-73
2023/05/01 02:03:23;;;;;;;2.53;1.77;;;;;;;;;;471328;29;1355;-73
2023/05/01 02:03:40;;;;;;;3.45;1.85;;;;;;;;;;469328;29;1826;-73
2023/05/01 02:03:57;;;;;;;3.15;1.90;;;;;;;;;;470876;29;1389;-73
2023/05/01 02:04:17;;;;;;;2.38;1.80;;;;;;;;;;472289;29;1207;-73
2023/05/01 02:04:56;;;;;;;2.83;1.83;;;;;;;;;;473742;29;1255;-74
2023/05/01 02:05:18;;;;;;;2.50;1.80;;;;;;;;;;476506;29;1214;-73
2023/05/01 02:05:35;;;;;;;2.53;1.90;;;;;;;;;;476708;29;1453;-74
2023/05/01 02:05:55;;;;;;;2.60;1.90;;;;;;;;;;479924;29;1223;-73
2023/05/01 02:06:15;;;;;;;2.50;1.83;;;;;;;;;;478431;29;1226;-74
2023/05/01 02:06:39;;;;;;;3.60;1.80;;;;;;;;;;479218;29;1183;-73
2023/05/01 02:07:06;;;;;;;3.15;1.80;;;;;;;;;;481987;29;1296;-73
2023/05/01 02:07:58;;;;;;;2.70;1.75;;;;;;;;;;481671;29;1109;-73
2023/05/01 02:08:28;;;;;;;2.10;1.73;;;;;;;;;;474743;29;1489;-73
2023/05/01 02:09:06;;;;;;;2.83;1.95;;;;;;;;;;477052;29;1151;-73
2023/05/01 02:09:38;;;;;;;2.67;1.80;;;;;;;;;;476805;29;1913;-73
2023/05/01 02:10:01;;;;;;;3.03;1.80;;;;;;;;;;474257;29;1341;-73
2023/05/01 02:10:27;;;;;;;2.15;1.67;;;;;;;;;;476031;29;1073;-73
2023/05/01 02:10:46;;;;;;;2.20;1.60;;;;;;;;;;477653;29;1328;-73
2023/05/01 02:11:13;;;;;;;1.80;1.60;;;;;;;;;;479386;29;1239;-72
2023/05/01 02:11:30;;;;;;;2.90;1.85;;;;;;;;;;473403;29;1118;-73
2023/05/01 02:11:51;;;;;;;3.05;1.90;;;;;;;;;;474077;29;1276;-74
2023/05/01 02:12:44;;;;;;;2.50;1.75;;;;;;;;;;478157;29;1136;-73
2023/05/01 02:13:06;;;;;;;2.50;1.80;;;;;;;;;;476150;29;1296;-73
2023/05/01 02:13:26;;;;;;;2.38;1.92;;;;;;;;;;477982;29;1136;-73
2023/05/01 02:13:43;;;;;;;3.22;1.80;;;;;;;;;;476161;29;1159;-74
2023/05/01 02:14:02;;;;;;;3.17;1.98;;;;;;;;;;475043;29;1112;-73
2023/05/01 02:14:20;;;;;;;2.90;1.80;;;;;;;;;;474316;29;1387;-73
2023/05/01 02:15:23;;;;;;;3.13;1.90;;;;;;;;;;478568;29;1281;-74
2023/05/01 02:15:48;;;;;;;2.67;1.80;;;;;;;;;;478646;29;1356;-74
2023/05/01 02:16:06;;;;;;;2.33;1.70;;;;;;;;;;484817;28;1271;-73
2023/05/01 02:16:35;;;;;;;2.70;1.77;;;;;;;;;;483583;28;1210;-73
2023/05/01 02:17:27;;;;;;;2.90;1.90;;;;;;;;;;481497;29;1384;-74
2023/05/01 02:17:56;;;;;;;2.40;1.80;;;;;;;;;;477125;29;1222;-73
2023/05/01 02:18:13;;;;;;;2.83;1.80;;;;;;;;;;482004;29;1297;-73
2023/05/01 02:18:32;;;;;;;3.25;1.90;;;;;;;;;;478716;29;1376;-74
2023/05/01 02:18:59;;;;;;;2.97;1.90;;;;;;;;;;479049;28;1295;-73
2023/05/01 02:19:16;;;;;;;3.65;2.00;;;;;;;;;;480421;29;1358;-74
2023/05/01 02:19:33;;;;;;;3.63;1.95;;;;;;;;;;482007;28;1107;-73
2023/05/01 02:20:13;;;;;;;2.78;1.83;;;;;;;;;;481343;28;1091;-73
2023/05/01 02:20:45;;;;;;;3.38;2.03;;;;;;;;;;490543;28;1182;-73
2023/05/01 02:21:12;;;;;;;2.95;1.88;;;;;;;;;;490436;28;1700;-74
2023/05/01 02:21:29;;;;;;;2.60;1.80;;;;;;;;;;491991;28;1119;-73
2023/05/01 02:21:50;;;;;;;3.42;2.00;;;;;;;;;;495331;28;1302;-73
2023/05/01 02:22:25;;;;;;;3.45;1.83;;;;;;;;;;493100;28;1181;-74
2023/05/01 02:22:52;;;;;;;3.17;1.90;;;;;;;;;;493174;28;1289;-74
2023/05/01 02:23:11;;;;;;;2.95;1.90;;;;;;;;;;493757;28;1236;-73
2023/05/01 02:23:51;;;;;;;3.22;2.10;;;;;;;;;;488584;28;1231;-73
2023/05/01 02:24:09;;;;;;;3.63;2.00;;;;;;;;;;492822;28;1117;-74
2023/05/01 02:24:29;;;;;;;3.70;2.00;;;;;;;;;;489997;28;1184;-73
2023/05/01 02:24:47;;;;;;;3.28;1.90;;;;;;;;;;490688;28;1203;-73
2023/05/01 02:25:31;;;;;;;2.80;1.90;;;;;;;;;;491107;28;1193;-73
2023/05/01 02:26:10;;;;;;;3.20;1.90;;;;;;;;;;487484;28;1194;-73
2023/05/01 02:26:28;;;;;;;3.17;1.80;;;;;;;;;;486955;28;1259;-74
2023/05/01 02:26:51;;;;;;;4.07;1.80;;;;;;;;;;492529;28;2085;-73
2023/05/01 02:27:11;;;;;;;2.97;1.80;;;;;;;;;;493225;28;1151;-73
2023/05/01 02:27:36;;;;;;;2.90;1.90;;;;;;;;;;489892;28;1183;-73
2023/05/01 02:28:25;;;;;;;3.33;2.08;;;;;;;;;;489302;28;1724;-73
2023/05/01 02:29:00;;;;;;;2.53;1.80;;;;;;;;;;483547;28;1393;-73
2023/05/01 02:29:57;;;;;;;4.15;2.08;;;;;;;;;;490434;28;1086;-73
2023/05/01 02:30:17;;;;;;;2.63;1.80;;;;;;;;;;493650;28;1272;-73
2023/05/01 02:30:58;;;;;;;3.60;2.10;;;;;;;;;;498863;28;1125;-73
2023/05/01 02:31:42;;;;;;;4.03;2.08;;;;;;;;;;494911;28;1311;-73
2023/05/01 02:31:59;;;;;;;3.10;1.90;;;;;;;;;;491986;28;1114;-73
2023/05/01 02:32:15;;;;;;;2.90;2.00;;;;;;;;;;491499;28;1290;-73
2023/05/01 02:32:31;;;;;;;3.45;1.92;;;;;;;;;;492902;28;1121;-74
2023/05/01 02:33:03;;;;;;;3.58;1.83;;;;;;;;;;495802;28;1144;-74
2023/05/01 02:33:36;;;;;;;2.75;1.90;;;;;;;;;;492973;28;1950;-73
2023/05/01 02:33:55;;;;;;;4.15;2.20;;;;;;;;;;494308;28;1355;-73
2023/05/01 02:34:13;;;;;;;2.85;2.10;;;;;;;;;;492812;28;1136;-74
2023/05/01 02:34:29;;;;;;;3.65;2.00;;;;;;;;;;495957;28;1966;-74
2023/05/01 02:34:45;;;;;;;3.28;1.90;;;;;;;;;;490468;28;1200;-74
2023/05/01 02:35:01;;;;;;;2.65;1.80;;;;;;;;;;490527;28;1148;-73
2023/05/01 02:35:46;;;;;;;2.87;1.80;;;;;;;;;;487767;28;1252;-73
2023/05/01 02:36:04;;;;;;;2.95;1.83;;;;;;;;;;493553;28;1238;-74
2023/05/01 02:36:36;;;;;;;3.58;2.00;;;;;;;;;;494476;28;1094;-73
2023/05/01 02:36:52;;;;;;;4.10;1.80;;;;;;;;;;493340;28;1157;-73
2023/05/01 02:37:10;;;;;;;3.07;1.83;;;;;;;;;;493909;28;1189;-74
2023/05/01 02:37:29;;;;;;;2.55;1.90;;;;;;;;;;490346;28;1287;-74
2023/05/01 02:38:05;;;;;;;2.90;1.75;;;;;;;;;;491079;28;2328;-74
2023/05/01 02:39:07;;;;;;;3.10;2.10;;;;;;;;;;496300;28;1148;-74
2023/05/01 02:39:39;;;;;;;3.72;1.98;;;;;;;;;;483998;28;1352;-73
2023/05/01 02:40:32;;;;;;;3.33;1.80;;;;;;;;;;483813;28;1273;-74
2023/05/01 02:41:28;;;;;;;3.38;2.03;;;;;;;;;;482699;28;1206;-73
2023/05/01 02:42:06;;;;;;;2.83;1.83;;;;;;;;;;486569;28;1239;-73
2023/05/01 02:42:53;;;;;;;3.58;1.90;;;;;;;;;;486478;28;1158;-74
2023/05/01 02:43:19;;;;;;;2.67;1.83;;;;;;;;;;482946;28;1407;-73
2023/05/01 02:44:03;;;;;;;2.28;1.70;;;;;;;;;;484179;28;1346;-72
2023/05/01 02:44:28;;;;;;;3.03;1.70;;;;;;;;;;483423;28;1211;-72
2023/05/01 02:45:37;;;;;;;2.47;1.60;;;;;;;;;;483962;28;1754;-72
2023/05/01 02:46:00;;;;;;;3.33;1.60;;;;;;;;;;482277;28;1283;-72
2023/05/01 02:46:26;;;;;;;2.08;1.60;;;;;;;;;;482255;28;1290;-72
2023/05/01 02:46:50;;;;;;;2.05;1.60;;;;;;;;;;481988;28;1089;-73
2023/05/01 02:47:14;;;;;;;3.25;1.70;;;;;;;;;;483583;28;1761;-73
2023/05/01 02:47:52;;;;;;;2.92;1.80;;;;;;;;;;481257;28;1160;-72
2023/05/01 02:48:20;;;;;;;3.35;1.85;;;;;;;;;;481459;28;1287;-73
2023/05/01 02:49:36;;;;;;;2.97;1.90;;;;;;;;;;478714;28;1144;-72
2023/05/01 02:49:54;;;;;;;5.10;2.00;;;;;;;;;;483917;28;1266;-73
2023/05/01 02:50:12;;;;;;;3.55;1.90;;;;;;;;;;483466;28;1247;-73
2023/05/01 02:50:55;;;;;;;2.83;1.80;;;;;;;;;;480738;28;1058;-73
2023/05/01 02:51:40;;;;;;;3.20;1.73;;;;;;;;;;481027;28;1452;-73
2023/05/01 02:52:19;;;;;;;2.67;1.83;;;;;;;;;;476811;28;1213;-74
2023/05/01 02:52:42;;;;;;;2.65;1.90;;;;;;;;;;482422;28;1312;-73
2023/05/01 02:53:14;;;;;;;3.67;2.17;;;;;;;;;;486457;28;1189;-73
2023/05/01 02:53:36;;;;;;;2.83;2.08;;;;;;;;;;483535;28;1759;-74
2023/05/01 02:54:15;;;;;;;2.80;1.85;;;;;;;;;;481669;28;1288;-73
2023/05/01 02:55:30;;;;;;;2.35;1.90;;;;;;;;;;482880;28;1487;-73
2023/05/01 02:56:11;;;;;;;3.20;2.00;;;;;;;;;;478073;28;1805;-73
2023/05/01 02:56:33;;;;;;;3.10;2.03;;;;;;;;;;494353;28;1864;-73
2023/05/01 02:57:02;;;;;;;2.53;2.08;;;;;;;;;;499755;28;1275;-73
2023/05/01 02:57:43;;;;;;;2.45;1.92;;;;;;;;;;496457;28;1350;-73
2023/05/01 02:57:59;;;;;;;2.70;2.00;;;;;;;;;;492078;28;1395;-73
2023/05/01 02:58:30;;;;;;;2.33;1.90;;;;;;;;;;489265;28;1227;-74
2023/05/01 02:58:48;;;;;;;3.53;1.95;;;;;;;;;;493081;28;1219;-73
2023/05/01 02:59:09;;;;;;;3.10;1.90;;;;;;;;;;490318;28;1121;-73
2023/05/01 02:59:25;;;;;;;3.13;1.80;;;;;;;;;;495730;28;1327;-73
2023/05/01 02:59:43;;;;;;;2.72;1.85;;;;;;;;;;491811;28;1195;-73
2023/05/01 03:00:12;;;;;;;;;;;;;;;;;;;;;
2023/05/01 03:00:28;;;;;;;3.45;1.95;;;;;;;;;;491906;28;978;-73
2023/05/01 03:00:54;;;;;;;3.10;1.90;;;;;;;;;;492347;28;1414;-74
2023/05/01 03:01:50;;;;;;;;;;;;;;;;;;;;;
2023/05/01 03:03:02;;;;;;;3.25;1.88;;;;;;;;;;496070;28;1034;-73
2023/05/01 03:03:11;;;;;;;2.70;1.80;;;;;;;;;;481264;28;1160;-73
2023/05/01 03:03:29;;;;;;;2.95;1.75;;;;;;;;;;483510;28;1141;-73
2023/05/01 03:03:45;;;;;;;3.10;1.80;;;;;;;;;;488853;28;1443;-73
2023/05/01 03:05:00;;;;;;;3.33;2.00;;;;;;;;;;494880;28;1002;-74
2023/05/01 03:05:19;;;;;;;2.08;1.67;;;;;;;;;;490904;28;1221;-73
2023/05/01 03:05:38;;;;;;;2.60;1.73;;;;;;;;;;493538;28;1154;-73
2023/05/01 03:05:54;;;;;;;3.00;1.83;;;;;;;;;;490994;28;1138;-74
2023/05/01 03:06:09;;;;;;;2.67;1.75;;;;;;;;;;491043;28;1319;-73
2023/05/01 03:06:43;;;;;;;3.10;1.85;;;;;;;;;;489093;28;1205;-73
2023/05/01 03:07:12;;;;;;;2.83;1.80;;;;;;;;;;488461;28;1152;-73
2023/05/01 03:07:34;;;;;;;3.33;1.80;;;;;;;;;;491910;28;1182;-73